createdAt,value
2022-11-03T00:01:45.778Z,91.00
2022-11-03T00:04:14.557Z,91.10
2022-11-03T00:06:42.732Z,91.10
2022-11-03T00:09:12.417Z,91.10
2022-11-03T00:11:41.065Z,91.20
2022-11-03T00:14:11.591Z,91.20
2022-11-03T00:16:39.719Z,91.10
2022-11-03T00:19:08.038Z,91.20
2022-11-03T00:21:36.555Z,91.30
2022-11-03T00:24:04.476Z,91.40
2022-11-03T00:26:36.483Z,91.30
2022-11-03T00:29:16.573Z,91.20
2022-11-03T00:31:44.822Z,91.20
2022-11-03T00:34:12.022Z,91.10
2022-11-03T00:36:43.674Z,91.00
2022-11-03T00:39:11.145Z,90.90
2022-11-03T00:41:38.336Z,90.90
2022-11-03T00:44:05.672Z,91.00
2022-11-03T00:46:35.472Z,91.00
2022-11-03T00:49:04.319Z,91.10
2022-11-03T00:51:31.703Z,91.20
2022-11-03T00:54:04.117Z,91.20
2022-11-03T00:56:33.333Z,91.40
2022-11-03T00:59:01.485Z,91.70
2022-11-03T01:01:31.358Z,91.70
2022-11-03T01:04:17.710Z,91.70
2022-11-03T01:06:49.961Z,91.70
2022-11-03T01:09:18.199Z,91.90
2022-11-03T01:11:59.794Z,92.10
2022-11-03T01:14:33.586Z,92.00
2022-11-03T01:17:00.551Z,92.10
2022-11-03T01:19:28.058Z,92.30
2022-11-03T01:21:54.968Z,92.30
2022-11-03T01:24:22.148Z,92.50
2022-11-03T01:26:49.311Z,92.60
2022-11-03T01:29:16.183Z,92.60
2022-11-03T01:31:43.035Z,92.60
2022-11-03T01:34:17.892Z,92.60
2022-11-03T01:36:45.418Z,92.80
2022-11-03T01:39:17.546Z,92.80
2022-11-03T01:41:46.983Z,92.90
2022-11-03T01:44:13.712Z,93.00
2022-11-03T01:47:01.485Z,93.10
2022-11-03T01:49:52.797Z,93.00
2022-11-03T01:52:33.967Z,93.00
2022-11-03T01:55:03.631Z,92.90
2022-11-03T01:57:37.306Z,92.60
2022-11-03T02:00:05.150Z,92.80
2022-11-03T02:02:40.551Z,92.80
2022-11-03T02:05:08.755Z,93.00
2022-11-03T02:07:41.736Z,93.00
2022-11-03T02:10:09.309Z,93.10
2022-11-03T02:12:37.159Z,93.30
2022-11-03T02:15:10.648Z,93.40
2022-11-03T02:17:39.674Z,93.70
2022-11-03T02:20:34.508Z,93.60
2022-11-03T02:23:10.068Z,93.70
2022-11-03T02:25:47.458Z,93.80
2022-11-03T02:28:20.807Z,93.90
2022-11-03T02:30:50.341Z,94.20
2022-11-03T02:33:32.189Z,94.30
2022-11-03T02:36:11.917Z,94.40
2022-11-03T02:38:45.404Z,94.60
2022-11-03T02:41:13.306Z,94.70
2022-11-03T02:43:41.672Z,94.80
2022-11-03T02:46:11.364Z,94.90
2022-11-03T02:48:38.336Z,95.20
2022-11-03T02:51:05.225Z,95.50
2022-11-03T02:53:39.497Z,95.70
2022-11-03T02:56:20.952Z,95.90
2022-11-03T02:58:59.265Z,96.10
2022-11-03T03:01:35.071Z,96.10
2022-11-03T03:04:06.183Z,96.20
2022-11-03T03:06:44.239Z,96.30
2022-11-03T03:09:18.349Z,96.40
2022-11-03T03:11:47.807Z,96.50
2022-11-03T03:14:22.822Z,96.40
2022-11-03T03:16:52.309Z,96.50
2022-11-03T03:19:30.094Z,97.40
2022-11-03T03:21:59.360Z,97.20
2022-11-03T03:24:38.268Z,97.60
2022-11-03T03:27:09.043Z,98.10
2022-11-03T03:29:44.432Z,98.60
2022-11-03T03:32:13.216Z,98.80
2022-11-03T03:34:43.233Z,99.10
2022-11-03T03:37:13.553Z,99.30
2022-11-03T03:39:43.950Z,99.30
2022-11-03T03:42:14.137Z,99.40
2022-11-03T03:44:42.606Z,99.50
2022-11-03T03:47:22.200Z,99.40
2022-11-03T03:49:48.962Z,99.40
2022-11-03T03:52:15.898Z,99.30
2022-11-03T03:54:42.844Z,99.20
2022-11-03T03:57:17.556Z,99.20
2022-11-03T03:59:44.969Z,99.10
2022-11-03T04:02:12.678Z,98.90
2022-11-03T04:04:39.549Z,99.00
2022-11-03T04:07:25.739Z,99.10
2022-11-03T04:09:52.599Z,99.10
2022-11-03T04:12:37.960Z,99.20
2022-11-03T04:15:23.554Z,99.40
2022-11-03T04:18:09.231Z,99.40
2022-11-03T04:20:54.979Z,99.50
2022-11-03T04:23:21.715Z,99.70
2022-11-03T04:25:52.037Z,99.90
2022-11-03T04:28:19.092Z,99.90
2022-11-03T04:30:45.846Z,99.90
2022-11-03T04:33:22.127Z,99.90
2022-11-03T04:35:49.743Z,99.90
2022-11-03T04:38:16.423Z,99.90
2022-11-03T04:40:50.561Z,99.90
2022-11-03T04:43:22.547Z,99.90
2022-11-03T04:45:50.005Z,99.90
2022-11-03T04:48:21.255Z,99.90
2022-11-03T04:50:50.244Z,99.90
2022-11-03T04:53:19.114Z,99.90
2022-11-03T04:55:48.034Z,99.90
2022-11-03T04:58:17.725Z,99.90
2022-11-03T05:00:44.681Z,99.90
2022-11-03T05:03:18.674Z,99.90
2022-11-03T05:05:45.576Z,99.90
2022-11-03T05:08:12.963Z,99.90
2022-11-03T05:10:39.871Z,99.90
2022-11-03T05:13:15.367Z,99.90
2022-11-03T05:15:44.101Z,99.90
2022-11-03T05:18:31.179Z,99.90
2022-11-03T05:21:32.256Z,99.90
2022-11-03T05:24:03.430Z,99.90
2022-11-03T05:26:33.273Z,99.90
2022-11-03T05:29:04.308Z,99.90
2022-11-03T05:31:32.109Z,99.90
2022-11-03T05:34:02.027Z,99.90
2022-11-03T05:36:33.107Z,99.90
2022-11-03T05:39:01.576Z,99.90
2022-11-03T05:41:30.215Z,99.90
2022-11-03T05:44:01.054Z,99.90
2022-11-03T05:46:31.245Z,99.90
2022-11-03T05:49:00.937Z,99.90
2022-11-03T05:51:41.635Z,99.90
2022-11-03T05:54:22.667Z,99.90
2022-11-03T05:56:49.915Z,99.90
2022-11-03T05:59:22.804Z,99.90
2022-11-03T06:01:50.441Z,99.90
2022-11-03T06:04:34.023Z,99.90
2022-11-03T06:07:04.507Z,99.90
2022-11-03T06:09:33.797Z,99.90
2022-11-03T06:12:05.398Z,99.90
2022-11-03T06:14:32.985Z,99.90
2022-11-03T06:17:07.264Z,99.90
2022-11-03T06:19:42.121Z,99.90
2022-11-03T06:22:20.554Z,99.90
2022-11-03T06:24:47.741Z,99.90
2022-11-03T06:27:22.302Z,99.90
2022-11-03T06:30:03.144Z,99.90
2022-11-03T06:32:30.275Z,99.90
2022-11-03T06:34:59.505Z,99.90
2022-11-03T06:37:30.982Z,99.90
2022-11-03T06:40:16.642Z,99.90
2022-11-03T06:42:43.577Z,99.90
2022-11-03T06:45:22.372Z,99.90
2022-11-03T06:47:49.728Z,99.90
2022-11-03T06:50:33.376Z,99.90
2022-11-03T06:53:04.273Z,99.90
2022-11-03T06:55:40.572Z,99.90
2022-11-03T06:58:17.145Z,99.90
2022-11-03T07:00:48.972Z,99.90
2022-11-03T07:03:27.152Z,99.90
2022-11-03T07:06:00.183Z,99.90
2022-11-03T07:08:39.928Z,99.90
2022-11-03T07:11:21.377Z,99.90
2022-11-03T07:13:50.256Z,99.90
2022-11-03T07:16:44.442Z,99.90
2022-11-03T07:19:26.295Z,99.90
2022-11-03T07:21:56.291Z,99.90
2022-11-03T07:24:32.882Z,99.90
2022-11-03T07:27:29.601Z,99.90
2022-11-03T07:30:11.273Z,99.90
2022-11-03T07:32:38.998Z,99.90
2022-11-03T07:35:17.646Z,99.90
2022-11-03T07:37:50.140Z,99.90
2022-11-03T07:40:21.590Z,99.90
2022-11-03T07:42:48.389Z,99.90
2022-11-03T07:45:41.987Z,99.90
2022-11-03T07:48:25.405Z,99.90
2022-11-03T07:50:54.896Z,99.90
2022-11-03T07:53:37.063Z,99.90
2022-11-03T07:56:20.858Z,99.90
2022-11-03T07:58:59.665Z,99.90
2022-11-03T08:01:32.015Z,99.90
2022-11-03T08:04:04.432Z,99.90
2022-11-03T08:06:31.896Z,99.90
2022-11-03T08:08:58.631Z,99.90
2022-11-03T08:11:28.082Z,99.90
2022-11-03T08:13:56.456Z,99.90
2022-11-03T08:16:23.242Z,99.90
2022-11-03T08:18:49.981Z,99.90
2022-11-03T08:21:17.396Z,99.90
2022-11-03T08:23:47.296Z,99.90
2022-11-03T08:26:15.336Z,99.90
2022-11-03T08:28:42.127Z,99.90
2022-11-03T08:31:12.488Z,99.90
2022-11-03T08:33:40.345Z,99.90
2022-11-03T08:36:08.486Z,99.90
2022-11-03T08:38:35.294Z,99.90
2022-11-03T08:44:18.054Z,99.90
2022-11-03T08:46:44.799Z,99.90
2022-11-03T08:49:11.510Z,99.90
2022-11-03T08:51:43.988Z,99.90
2022-11-03T08:54:11.285Z,99.90
2022-11-03T08:56:38.045Z,99.90
2022-11-03T08:59:04.807Z,99.90
2022-11-03T09:01:31.609Z,99.90
2022-11-03T09:03:58.491Z,99.90
2022-11-03T09:06:25.346Z,99.90
2022-11-03T09:11:38.992Z,99.90
2022-11-03T09:14:05.804Z,99.90
2022-11-03T09:16:32.638Z,99.90
2022-11-03T09:18:59.413Z,99.90
2022-11-03T09:21:26.219Z,99.90
2022-11-03T09:23:52.988Z,99.90
2022-11-03T09:26:20.212Z,99.90
2022-11-03T09:28:47.001Z,99.90
2022-11-03T09:31:13.793Z,99.90
2022-11-03T09:33:40.592Z,99.90
2022-11-03T09:36:07.699Z,99.90
2022-11-03T09:38:34.412Z,99.90
2022-11-03T09:41:04.505Z,99.90
2022-11-03T09:43:36.490Z,99.90
2022-11-03T09:46:03.334Z,99.90
2022-11-03T09:48:30.082Z,99.90
2022-11-03T09:50:57.534Z,99.90
2022-11-03T09:53:24.332Z,99.90
2022-11-03T09:55:51.076Z,99.90
2022-11-03T09:58:18.497Z,99.90
2022-11-03T10:00:45.542Z,99.90
2022-11-03T10:03:14.455Z,99.90
2022-11-03T10:05:42.188Z,99.90
2022-11-03T10:08:22.968Z,99.90
2022-11-03T10:10:51.180Z,99.90
2022-11-03T10:13:39.979Z,99.90
2022-11-03T10:16:09.010Z,99.90
2022-11-03T10:18:36.653Z,99.90
2022-11-03T10:21:13.488Z,99.90
2022-11-03T10:23:40.321Z,99.90
2022-11-03T10:26:19.053Z,99.90
2022-11-03T10:29:04.352Z,99.90
2022-11-03T10:31:39.531Z,99.90
2022-11-03T10:34:23.519Z,99.90
2022-11-03T10:36:50.866Z,99.90
2022-11-03T10:39:30.693Z,99.90
2022-11-03T10:41:59.105Z,99.90
2022-11-03T10:44:30.312Z,99.90
2022-11-03T10:47:01.073Z,99.90
2022-11-03T10:49:30.514Z,99.90
2022-11-03T10:52:25.171Z,99.90
2022-11-03T10:54:54.579Z,99.90
2022-11-03T10:57:22.848Z,99.90
2022-11-03T10:59:53.105Z,99.90
2022-11-03T11:02:23.053Z,99.90
2022-11-03T11:05:01.483Z,99.90
2022-11-03T11:07:38.412Z,99.90
2022-11-03T11:10:20.016Z,99.90
2022-11-03T11:13:05.936Z,99.90
2022-11-03T11:15:50.136Z,99.90
2022-11-03T11:18:29.219Z,99.90
2022-11-03T11:21:01.155Z,99.90
2022-11-03T11:23:27.839Z,99.90
2022-11-03T11:26:10.223Z,99.50
2022-11-03T11:28:41.370Z,99.30
2022-11-03T11:31:45.759Z,99.00
2022-11-03T11:34:36.959Z,98.70
2022-11-03T11:37:07.345Z,98.50
2022-11-03T11:39:35.845Z,98.20
2022-11-03T11:42:12.171Z,97.90
2022-11-03T11:44:54.650Z,97.40
2022-11-03T11:47:46.181Z,97.30
2022-11-03T11:50:16.435Z,97.20
2022-11-03T11:52:48.579Z,97.10
2022-11-03T11:55:31.498Z,96.90
2022-11-03T11:58:00.548Z,96.70
2022-11-03T12:00:30.921Z,96.40
2022-11-03T12:02:59.449Z,96.40
2022-11-03T12:05:30.591Z,96.30
2022-11-03T12:07:57.923Z,96.10
2022-11-03T12:10:27.713Z,96.50
2022-11-03T12:12:56.136Z,96.60
2022-11-03T12:16:08.126Z,96.60
2022-11-03T12:18:49.345Z,96.80
2022-11-03T12:21:46.403Z,96.80
2022-11-03T12:24:49.668Z,96.90
2022-11-03T12:27:25.584Z,96.70
2022-11-03T12:29:57.302Z,96.30
2022-11-03T12:32:33.749Z,95.70
2022-11-03T12:35:08.092Z,95.30
2022-11-03T12:37:35.078Z,94.80
2022-11-03T12:40:01.875Z,94.80
2022-11-03T12:42:28.669Z,94.70
2022-11-03T12:44:55.944Z,94.30
2022-11-03T12:47:22.911Z,94.20
2022-11-03T12:49:49.672Z,94.20
2022-11-03T12:52:16.547Z,94.20
2022-11-03T12:54:43.348Z,94.30
2022-11-03T12:57:10.240Z,94.50
2022-11-03T12:59:37.083Z,94.80
2022-11-03T13:02:04.137Z,94.60
2022-11-03T13:04:31.004Z,94.90
2022-11-03T13:06:57.788Z,94.20
2022-11-03T13:09:24.547Z,94.10
2022-11-03T13:12:14.569Z,94.10
2022-11-03T13:14:45.935Z,94.10
2022-11-03T13:17:14.931Z,94.30
2022-11-03T13:19:41.791Z,94.30
2022-11-03T13:22:08.570Z,94.50
2022-11-03T13:24:35.329Z,94.60
2022-11-03T13:27:02.065Z,94.60
2022-11-03T13:29:34.011Z,94.70
2022-11-03T13:32:03.482Z,94.80
2022-11-03T13:34:30.443Z,94.60
2022-11-03T13:36:57.322Z,94.40
2022-11-03T13:39:24.114Z,94.60
2022-11-03T13:41:51.069Z,94.30
2022-11-03T13:44:17.817Z,94.00
2022-11-03T13:46:44.551Z,94.00
2022-11-03T13:51:58.165Z,94.10
2022-11-03T14:00:01.967Z,93.30
2022-11-03T14:05:26.054Z,93.00
2022-11-03T14:07:52.962Z,92.80
2022-11-03T14:10:19.716Z,92.70
2022-11-03T14:12:46.481Z,92.80
2022-11-03T14:15:13.382Z,93.10
2022-11-03T14:17:40.843Z,93.10
2022-11-03T14:20:11.139Z,93.00
2022-11-03T14:22:38.009Z,93.00
2022-11-03T14:25:05.419Z,93.20
2022-11-03T14:27:32.302Z,93.30
2022-11-03T14:29:59.115Z,93.20
2022-11-03T14:32:25.863Z,93.10
2022-11-03T14:34:52.640Z,93.10
2022-11-03T14:37:19.521Z,92.90
2022-11-03T14:39:46.315Z,93.00
2022-11-03T14:42:16.978Z,93.20
2022-11-03T14:44:46.076Z,93.40
2022-11-03T14:47:17.945Z,93.70
2022-11-03T14:49:45.852Z,93.90
2022-11-03T14:52:12.922Z,94.00
2022-11-03T14:54:40.137Z,94.20
2022-11-03T14:57:07.054Z,94.50
2022-11-03T14:59:53.528Z,94.80
2022-11-03T15:02:40.989Z,95.00
2022-11-03T15:05:46.362Z,95.20
2022-11-03T15:08:33.588Z,95.50
2022-11-03T15:11:20.623Z,95.90
2022-11-03T15:14:08.490Z,96.20
2022-11-03T15:16:55.543Z,96.30
2022-11-03T15:19:42.897Z,96.40
2022-11-03T15:25:36.283Z,96.50
2022-11-03T15:28:03.321Z,96.60
2022-11-03T15:30:30.175Z,96.80
2022-11-03T15:32:57.643Z,96.80
2022-11-03T15:35:24.725Z,96.90
2022-11-03T15:37:51.832Z,97.10
2022-11-03T15:40:18.624Z,97.10
2022-11-03T15:42:45.389Z,97.60
2022-11-03T15:45:14.414Z,97.30
2022-11-03T15:47:41.283Z,97.20
2022-11-03T15:50:09.850Z,97.40
2022-11-03T15:52:37.230Z,97.20
2022-11-03T15:55:07.893Z,97.10
2022-11-03T15:57:35.120Z,97.10
2022-11-03T16:00:02.475Z,97.20
2022-11-03T16:02:46.282Z,97.50
2022-11-03T16:05:13.754Z,97.60
2022-11-03T16:07:40.601Z,97.50
2022-11-03T16:10:07.736Z,97.70
2022-11-03T16:12:36.073Z,97.90
2022-11-03T16:15:03.412Z,97.90
2022-11-03T16:17:30.244Z,98.50
2022-11-03T16:19:57.004Z,97.90
2022-11-03T16:22:23.787Z,98.00
2022-11-03T16:24:50.530Z,98.00
2022-11-03T16:27:17.508Z,98.10
2022-11-03T16:29:44.244Z,98.30
2022-11-03T16:32:11.034Z,98.40
2022-11-03T16:34:37.850Z,98.60
2022-11-03T16:37:04.961Z,98.60
2022-11-03T16:39:31.759Z,98.80
2022-11-03T16:45:18.374Z,98.80
2022-11-03T16:47:46.540Z,99.00
2022-11-03T16:50:13.372Z,99.00
2022-11-03T16:52:40.130Z,99.30
2022-11-03T16:55:07.418Z,99.40
2022-11-03T16:57:34.241Z,99.50
2022-11-03T17:00:00.986Z,99.60
2022-11-03T17:02:28.022Z,99.70
2022-11-03T17:04:55.089Z,99.90
2022-11-03T17:07:21.839Z,99.90
2022-11-03T17:09:48.604Z,99.90
2022-11-03T17:12:15.499Z,99.90
2022-11-03T17:14:42.315Z,99.90
2022-11-03T17:17:09.070Z,99.90
2022-11-03T17:19:35.825Z,99.90
2022-11-03T17:22:02.549Z,99.90
2022-11-03T17:24:29.575Z,99.90
2022-11-03T17:27:04.308Z,99.90
2022-11-03T17:29:37.170Z,99.90
2022-11-03T17:32:29.920Z,99.90
2022-11-03T17:34:58.198Z,99.90
2022-11-03T17:37:26.206Z,99.90
2022-11-03T17:39:53.125Z,99.90
2022-11-03T17:42:24.588Z,99.90
2022-11-03T17:44:56.184Z,99.90
2022-11-03T17:47:24.183Z,99.90
2022-11-03T17:49:51.319Z,99.90
2022-11-03T17:52:24.908Z,99.90
2022-11-03T17:54:57.266Z,99.90
2022-11-03T17:57:24.941Z,99.90
2022-11-03T17:59:54.742Z,99.90
2022-11-03T18:02:24.711Z,99.90
2022-11-03T18:04:57.688Z,99.90
2022-11-03T18:07:26.934Z,99.90
2022-11-03T18:09:54.317Z,99.90
2022-11-03T18:12:43.624Z,99.90
2022-11-03T18:15:16.285Z,99.90
2022-11-03T18:17:43.104Z,99.90
2022-11-03T18:20:23.975Z,99.90
2022-11-03T18:22:50.746Z,99.90
2022-11-03T18:25:20.356Z,99.90
2022-11-03T18:27:47.749Z,99.90
2022-11-03T18:30:18.755Z,99.90
2022-11-03T18:32:45.701Z,99.90
2022-11-03T18:35:21.304Z,99.90
2022-11-03T18:37:48.271Z,99.90
2022-11-03T18:40:15.383Z,99.90
2022-11-03T18:42:42.164Z,99.90
2022-11-03T18:45:14.645Z,99.90
2022-11-03T18:47:42.449Z,99.90
2022-11-03T18:50:14.562Z,99.90
2022-11-03T18:52:44.874Z,99.90
2022-11-03T18:55:12.675Z,99.90
2022-11-03T18:57:40.137Z,99.90
2022-11-03T19:00:16.286Z,99.90
2022-11-03T19:02:43.156Z,99.90
2022-11-03T19:05:13.771Z,99.90
2022-11-03T19:07:43.365Z,99.90
2022-11-03T19:10:13.508Z,99.90
2022-11-03T19:12:44.441Z,99.90
2022-11-03T19:15:20.876Z,99.90
2022-11-03T19:17:49.944Z,99.90
2022-11-03T19:20:18.313Z,99.90
2022-11-03T19:22:46.202Z,99.90
2022-11-03T19:25:14.640Z,99.90
2022-11-03T19:27:45.057Z,99.90
2022-11-03T19:30:14.998Z,99.90
2022-11-03T19:32:47.268Z,99.90
2022-11-03T19:35:22.974Z,99.90
2022-11-03T19:37:55.210Z,99.90
2022-11-03T19:40:22.113Z,99.90
2022-11-03T19:42:48.954Z,99.90
2022-11-03T19:45:18.552Z,99.90
2022-11-03T19:48:22.392Z,99.90
2022-11-03T19:50:37.932Z,99.90
2022-11-03T19:53:06.818Z,99.90
2022-11-03T19:55:40.361Z,99.90
2022-11-03T19:58:15.414Z,99.90
2022-11-03T20:00:43.192Z,99.90
2022-11-03T20:03:10.134Z,99.90
2022-11-03T20:05:37.506Z,99.90
2022-11-03T20:08:07.591Z,99.90
2022-11-03T20:10:36.075Z,99.90
2022-11-03T20:13:04.102Z,99.90
2022-11-03T20:15:31.016Z,99.90
2022-11-03T20:17:57.874Z,99.90
2022-11-03T20:20:35.802Z,99.90
2022-11-03T20:23:05.061Z,99.90
2022-11-03T20:25:37.181Z,99.90
2022-11-03T20:28:22.015Z,99.90
2022-11-03T20:30:49.949Z,99.90
2022-11-03T20:33:19.663Z,99.90
2022-11-03T20:35:47.570Z,99.90
2022-11-03T20:38:17.638Z,99.90
2022-11-03T20:40:44.926Z,99.90
2022-11-03T20:43:24.341Z,99.90
2022-11-03T20:45:51.090Z,99.90
2022-11-03T20:48:17.945Z,99.90
2022-11-03T20:50:44.908Z,99.90
2022-11-03T20:53:16.985Z,99.90
2022-11-03T20:55:44.139Z,99.90
2022-11-03T20:58:16.054Z,99.90
2022-11-03T21:00:44.367Z,99.90
2022-11-03T21:03:45.139Z,99.90
2022-11-03T21:06:15.663Z,99.90
2022-11-03T21:08:47.254Z,99.90
2022-11-03T21:11:29.228Z,99.90
2022-11-03T21:14:01.826Z,99.90
2022-11-03T21:16:48.682Z,99.90
2022-11-03T21:19:43.251Z,99.90
2022-11-03T21:22:38.258Z,99.90
2022-11-03T21:25:10.481Z,99.90
2022-11-03T21:27:39.302Z,99.90
2022-11-03T21:30:11.183Z,99.90
2022-11-03T21:32:38.082Z,99.90
2022-11-03T21:35:06.271Z,99.90
2022-11-03T21:37:33.053Z,99.90
2022-11-03T21:39:59.880Z,99.90
2022-11-03T21:42:56.273Z,99.90
2022-11-03T21:45:23.094Z,99.90
2022-11-03T21:48:13.169Z,99.90
2022-11-03T21:50:41.207Z,99.90
2022-11-03T21:53:08.446Z,99.90
2022-11-03T21:55:35.921Z,99.90
2022-11-03T21:58:03.609Z,99.90
2022-11-03T22:00:30.979Z,99.90
2022-11-03T22:02:58.979Z,99.90
2022-11-03T22:05:26.503Z,99.90
2022-11-03T22:07:53.376Z,99.90
2022-11-03T22:10:20.554Z,99.90
2022-11-03T22:12:47.321Z,99.90
2022-11-03T22:15:32.915Z,99.90
2022-11-03T22:18:04.961Z,99.90
2022-11-03T22:20:50.885Z,99.90
2022-11-03T22:23:36.206Z,99.90
2022-11-03T22:26:21.617Z,99.90
2022-11-03T22:29:11.134Z,99.90
2022-11-03T22:31:40.642Z,99.90
2022-11-03T22:34:26.231Z,99.90
2022-11-03T22:36:53.487Z,99.90
2022-11-03T22:39:39.058Z,99.90
2022-11-03T22:42:24.785Z,99.90
2022-11-03T22:45:10.355Z,99.90
2022-11-03T22:47:37.174Z,99.90
2022-11-03T22:50:04.361Z,99.90
2022-11-03T22:52:31.148Z,99.90
2022-11-03T22:54:57.930Z,99.90
2022-11-03T22:57:24.705Z,99.90
2022-11-03T22:59:51.531Z,99.90
2022-11-03T23:02:18.515Z,99.90
2022-11-03T23:04:46.844Z,99.90
2022-11-03T23:07:13.624Z,99.90
2022-11-03T23:09:40.468Z,99.90
2022-11-03T23:12:07.415Z,99.90
2022-11-03T23:14:57.205Z,99.90
2022-11-03T23:17:44.019Z,99.90
2022-11-03T23:20:29.632Z,99.90
2022-11-03T23:22:56.442Z,99.90
2022-11-03T23:25:23.243Z,99.90
2022-11-03T23:27:50.251Z,99.90
2022-11-03T23:30:17.039Z,99.90
2022-11-03T23:32:43.884Z,99.90
2022-11-03T23:35:10.725Z,99.90
2022-11-03T23:37:37.578Z,99.90
2022-11-03T23:40:04.547Z,99.90
2022-11-03T23:42:31.412Z,99.90
2022-11-03T23:45:16.732Z,99.90
2022-11-03T23:48:02.104Z,99.90
2022-11-03T23:50:29.087Z,99.90
2022-11-03T23:52:55.829Z,99.90
2022-11-03T23:55:22.646Z,99.90
2022-11-03T23:58:08.113Z,99.90
